Time;durP1;ratioP1;P1;durP2;ratioP2;P2;SDS_P1;SDS_P2;PMS_P1;PMS_P2;Temp;Humidity;BMP_temperature;BMP_pressure;BME280_temperature;BME280_humidity;BME280_pressure;Samples;Min_cycle;Max_cycle;Signal;HPM_P1;HPM_P2
2022/10/29 00:02:16;;;;;;;0.82;0.52;;;23.20;64.00;;;;;;6206208;28;20053;-54
2022/10/29 00:05:17;;;;;;;0.80;0.63;;;22.60;63.70;;;;;;6211177;28;20098;-54
2022/10/29 00:08:22;;;;;;;;;;;22.80;63.80;;;;;;6214076;28;20048;-53
2022/10/29 00:11:24;;;;;;;1.15;0.50;;;23.40;64.30;;;;;;6213680;28;20043;-53
2022/10/29 00:14:25;;;;;;;0.77;0.50;;;23.40;64.10;;;;;;6215723;28;20041;-53
2022/10/29 00:17:27;;;;;;;;;;;22.90;64.00;;;;;;6214200;28;20156;-54
2022/10/29 00:20:28;;;;;;;0.88;0.80;;;22.80;64.10;;;;;;6194951;28;20039;-53
2022/10/29 00:23:29;;;;;;;;;;;23.40;64.30;;;;;;6214625;28;20162;-53
2022/10/29 00:26:32;;;;;;;1.25;0.70;;;23.30;64.50;;;;;;6215798;28;19925;-54
2022/10/29 00:29:36;;;;;;;1.05;0.82;;;23.30;64.30;;;;;;6217268;28;20809;-54
2022/10/29 00:32:38;;;;;;;0.73;0.55;;;23.10;64.20;;;;;;6216097;28;20049;-52
2022/10/29 00:35:39;;;;;;;;;;;23.00;64.40;;;;;;6201702;28;20046;-54
2022/10/29 00:38:42;;;;;;;0.75;0.57;;;23.40;64.50;;;;;;6189492;28;19972;-53
2022/10/29 00:41:44;;;;;;;1.20;0.80;;;23.00;64.10;;;;;;6170158;28;20076;-53
2022/10/29 00:44:45;;;;;;;1.17;0.80;;;23.00;64.30;;;;;;6192433;28;20084;-53
2022/10/29 00:47:52;;;;;;;0.80;0.60;;;23.00;64.30;;;;;;6189381;28;20088;-53
2022/10/29 00:50:55;;;;;;;1.20;0.70;;;22.90;64.10;;;;;;6186486;28;20053;-53
2022/10/29 00:54:00;;;;;;;0.60;0.60;;;22.90;64.10;;;;;;6196574;28;20129;-55
2022/10/29 00:57:08;;;;;;;0.95;0.70;;;23.50;64.20;;;;;;6189709;28;20049;-55
2022/10/29 01:00:13;;;;;;;1.23;0.80;;;23.20;64.10;;;;;;6163883;28;20100;-52
2022/10/29 01:03:15;;;;;;;1.17;0.70;;;23.10;64.00;;;;;;6190714;28;20838;-55
2022/10/29 01:06:17;;;;;;;0.93;0.80;;;23.10;64.20;;;;;;6201603;23;20055;-52
2022/10/29 01:09:18;;;;;;;0.65;0.60;;;22.90;64.00;;;;;;6258353;28;20036;-52
2022/10/29 01:12:37;;;;;;;1.35;0.85;;;23.30;64.00;;;;;;6278539;28;20907;-51
2022/10/29 01:15:47;;;;;;;0.90;0.70;;;23.20;63.60;;;;;;6272987;28;20089;-52
2022/10/29 01:18:59;;;;;;;1.38;0.75;;;23.00;63.50;;;;;;6277252;28;20219;-52
2022/10/29 01:22:04;;;;;;;0.90;0.70;;;22.90;63.30;;;;;;6275805;28;20384;-53
2022/10/29 01:25:26;;;;;;;1.02;0.70;;;23.20;63.40;;;;;;6277926;28;20485;-53
2022/10/29 01:28:48;;;;;;;1.08;0.60;;;23.10;63.40;;;;;;6277791;28;20685;-51
2022/10/29 01:31:57;;;;;;;1.40;0.80;;;23.40;63.40;;;;;;6264827;28;20078;-52
2022/10/29 01:35:04;;;;;;;0.88;0.60;;;23.00;63.20;;;;;;6278473;28;20035;-51
2022/10/29 01:38:13;;;;;;;1.33;0.50;;;23.00;63.10;;;;;;6279802;28;20115;-51
2022/10/29 01:41:22;;;;;;;0.57;0.50;;;23.00;63.10;;;;;;6247917;28;20368;-52
2022/10/29 01:44:33;;;;;;;0.70;0.60;;;23.10;63.00;;;;;;6257455;28;20039;-50
2022/10/29 01:47:40;;;;;;;0.65;0.65;;;23.00;63.00;;;;;;6246700;28;20039;-53
2022/10/29 01:50:47;;;;;;;1.45;0.50;;;23.00;63.00;;;;;;6274688;28;20377;-52
2022/10/29 01:53:49;;;;;;;1.45;0.85;;;23.20;63.10;;;;;;6253568;28;20527;-53
2022/10/29 01:56:54;;;;;;;0.82;0.57;;;23.00;63.00;;;;;;6274862;28;20798;-54
2022/10/29 01:59:59;;;;;;;0.93;0.63;;;23.20;63.00;;;;;;6279837;28;20543;-50
2022/10/29 02:03:18;;;;;;;0.80;0.60;;;23.10;63.00;;;;;;6280217;28;20321;-51
2022/10/29 02:06:30;;;;;;;0.95;0.95;;;23.00;62.90;;;;;;6270441;28;20047;-55
2022/10/29 02:09:36;;;;;;;0.88;0.70;;;23.30;63.00;;;;;;6256374;28;20479;-54
2022/10/29 02:12:44;;;;;;;0.73;0.63;;;23.20;62.90;;;;;;6255997;28;20540;-52
2022/10/29 02:15:49;;;;;;;1.23;0.70;;;23.30;62.90;;;;;;6241475;28;20032;-54
2022/10/29 02:18:52;;;;;;;0.82;0.70;;;23.20;62.90;;;;;;6248427;28;20893;-51
2022/10/29 02:21:53;;;;;;;1.15;0.73;;;23.20;63.00;;;;;;6253877;28;20514;-51
2022/10/29 02:24:54;;;;;;;;;;;23.10;63.00;;;;;;6253427;28;20748;-49
2022/10/29 02:27:56;;;;;;;0.93;0.60;;;22.90;63.10;;;;;;6254263;28;19981;-52
2022/10/29 02:30:58;;;;;;;1.05;0.80;;;22.80;62.80;;;;;;6254992;28;20755;-53
2022/10/29 02:34:00;;;;;;;;;;;22.60;62.70;;;;;;6255882;28;20347;-54
2022/10/29 02:37:01;;;;;;;0.70;0.63;;;23.30;63.30;;;;;;6259554;28;20509;-52
2022/10/29 02:40:03;;;;;;;;;;;23.20;63.00;;;;;;6257834;28;20384;-51
2022/10/29 02:43:04;;;;;;;0.98;0.70;;;22.90;63.00;;;;;;6256457;28;20064;-52
2022/10/29 02:46:12;;;;;;;0.70;0.70;;;23.50;63.20;;;;;;6254823;28;20159;-53
2022/10/29 02:49:14;;;;;;;1.00;0.85;;;22.90;62.70;;;;;;6237011;28;20043;-53
2022/10/29 02:52:16;;;;;;;0.90;0.73;;;22.90;62.90;;;;;;6253627;28;20198;-53
2022/10/29 02:55:17;;;;;;;;;;;22.80;62.70;;;;;;6240587;28;20355;-48
2022/10/29 02:58:18;;;;;;;0.95;0.70;;;23.10;63.20;;;;;;6253995;28;19930;-51
2022/10/29 03:01:20;;;;;;;1.15;0.63;;;23.20;62.90;;;;;;6247877;28;20047;-52
2022/10/29 03:04:22;;;;;;;0.98;0.82;;;23.00;62.90;;;;;;6245605;28;20040;-52
2022/10/29 03:07:24;;;;;;;1.10;0.77;;;22.90;62.70;;;;;;6250374;28;20750;-52
2022/10/29 03:10:25;;;;;;;;;;;23.10;62.90;;;;;;6249052;28;20820;-48
2022/10/29 03:13:26;;;;;;;0.88;0.80;;;23.10;63.20;;;;;;6233439;28;20150;-54
2022/10/29 03:16:28;;;;;;;0.70;0.70;;;22.60;62.80;;;;;;6248724;28;20044;-53
2022/10/29 03:19:30;;;;;;;;;;;23.00;63.00;;;;;;6256084;28;20052;-53
2022/10/29 03:22:31;;;;;;;1.00;0.90;;;22.80;63.00;;;;;;6257473;28;20164;-54
2022/10/29 03:25:32;;;;;;;;;;;22.90;62.90;;;;;;6260278;28;20071;-53
2022/10/29 03:28:34;;;;;;;1.10;0.70;;;22.80;63.00;;;;;;6260065;28;20031;-54
2022/10/29 03:31:36;;;;;;;0.90;0.70;;;23.00;62.80;;;;;;6242409;28;20043;-52
2022/10/29 03:34:38;;;;;;;;;;;22.60;62.60;;;;;;6254187;28;20044;-49
2022/10/29 03:37:40;;;;;;;0.80;0.65;;;23.30;63.20;;;;;;6251845;28;20571;-52
2022/10/29 03:40:42;;;;;;;1.08;0.70;;;22.70;62.50;;;;;;6216931;28;20512;-51
2022/10/29 03:43:44;;;;;;;0.70;0.65;;;23.50;63.00;;;;;;6229464;28;20068;-52
2022/10/29 03:46:46;;;;;;;1.30;1.17;;;22.80;62.80;;;;;;6254717;28;20067;-50
2022/10/29 03:49:47;;;;;;;;;;;23.00;62.90;;;;;;6251191;28;20040;-51
2022/10/29 03:52:49;;;;;;;1.05;0.65;;;22.60;62.70;;;;;;6245957;28;19928;-50
2022/10/29 03:55:50;;;;;;;;;;;22.90;62.80;;;;;;6254349;28;20071;-51
2022/10/29 03:58:52;;;;;;;0.93;0.85;;;22.60;62.80;;;;;;6252569;28;19924;-50
2022/10/29 04:01:53;;;;;;;1.40;1.17;;;23.20;62.80;;;;;;6251473;28;20163;-50
2022/10/29 04:04:58;;;;;;;1.13;0.90;;;23.00;62.90;;;;;;6246871;28;20044;-53
2022/10/29 04:08:00;;;;;;;1.40;0.90;;;22.70;62.50;;;;;;6258618;28;20309;-52
2022/10/29 04:11:01;;;;;;;;;;;22.90;62.70;;;;;;6250937;28;20052;-52
2022/10/29 04:14:03;;;;;;;1.50;0.60;;;23.20;63.10;;;;;;6248521;28;20044;-51
2022/10/29 04:17:04;;;;;;;1.10;0.80;;;23.00;62.70;;;;;;6250720;28;20049;-52
2022/10/29 04:20:07;;;;;;;;;;;23.00;62.90;;;;;;6247793;28;20098;-52
2022/10/29 04:23:28;;;;;;;1.20;0.70;;;22.70;62.80;;;;;;6227751;28;19924;-51
2022/10/29 04:26:49;;;;;;;;;;;22.90;62.80;;;;;;6232318;28;20044;-49
2022/10/29 04:30:11;;;;;;;1.10;0.80;;;22.70;62.90;;;;;;6228903;28;19928;-52
2022/10/29 04:33:18;;;;;;;1.65;0.82;;;23.00;62.70;;;;;;6187082;28;20444;-48
2022/10/29 04:36:20;;;;;;;0.98;0.73;;;22.90;62.90;;;;;;6250463;28;20155;-53
2022/10/29 04:39:21;;;;;;;1.10;0.80;;;22.80;62.70;;;;;;6232335;28;20040;-49
2022/10/29 04:42:24;;;;;;;1.40;0.90;;;23.00;62.90;;;;;;6241382;28;20493;-50
2022/10/29 04:45:26;;;;;;;1.25;0.88;;;23.00;62.90;;;;;;6244876;28;20151;-50
2022/10/29 04:48:28;;;;;;;1.15;0.90;;;23.00;62.90;;;;;;6248656;28;20122;-53
2022/10/29 04:51:30;;;;;;;1.00;0.80;;;23.30;62.90;;;;;;6231163;28;20833;-51
2022/10/29 04:54:31;;;;;;;0.80;0.70;;;23.10;62.70;;;;;;6249857;28;20044;-52
2022/10/29 04:57:33;;;;;;;;;;;23.10;62.90;;;;;;6255674;28;20414;-51
2022/10/29 05:00:34;;;;;;;0.82;0.63;;;22.60;62.90;;;;;;6252026;28;20038;-53
2022/10/29 05:03:36;;;;;;;0.95;0.85;;;22.70;62.70;;;;;;6248701;28;20426;-50
2022/10/29 05:06:37;;;;;;;;;;;23.10;63.00;;;;;;6255872;28;20040;-50
2022/10/29 05:09:39;;;;;;;0.93;0.82;;;23.20;63.20;;;;;;6254454;28;20301;-51
2022/10/29 05:12:40;;;;;;;;;;;23.10;63.00;;;;;;6251996;28;20806;-54
2022/10/29 05:15:42;;;;;;;1.25;0.80;;;23.10;63.30;;;;;;6249458;28;20213;-52
2022/10/29 05:18:43;;;;;;;1.40;0.80;;;23.10;63.10;;;;;;6257309;28;20143;-52
2022/10/29 05:21:45;;;;;;;;;;;23.10;63.00;;;;;;6258186;28;20191;-53
2022/10/29 05:24:47;;;;;;;1.85;0.90;;;23.30;63.30;;;;;;6252728;28;19924;-51
2022/10/29 05:27:48;;;;;;;1.25;1.00;;;23.10;63.00;;;;;;6249450;28;20163;-52
2022/10/29 05:30:50;;;;;;;;;;;22.70;62.80;;;;;;6241963;28;20080;-50
2022/10/29 05:33:51;;;;;;;1.25;1.13;;;22.50;62.70;;;;;;6248397;28;20206;-51
2022/10/29 05:36:57;;;;;;;1.23;1.00;;;23.10;63.00;;;;;;6245066;28;20044;-49
2022/10/29 05:39:59;;;;;;;0.80;0.60;;;23.00;62.90;;;;;;6249446;28;20356;-52
2022/10/29 05:43:00;;;;;;;;;;;23.20;63.00;;;;;;6240762;28;20091;-53
2022/10/29 05:46:03;;;;;;;1.10;0.90;;;22.50;62.90;;;;;;6250992;28;19928;-50
2022/10/29 05:49:04;;;;;;;1.17;0.90;;;22.60;62.60;;;;;;6250805;28;20232;-52
2022/10/29 05:52:06;;;;;;;;;;;22.80;62.80;;;;;;6243683;28;20104;-52
2022/10/29 05:55:08;;;;;;;1.58;0.80;;;22.60;62.80;;;;;;6257460;28;19931;-52
2022/10/29 05:58:12;;;;;;;1.10;1.00;;;22.90;62.80;;;;;;6256061;28;20557;-50
2022/10/29 06:01:13;;;;;;;1.45;1.00;;;23.10;62.70;;;;;;6252710;28;20461;-52
2022/10/29 06:04:15;;;;;;;1.05;0.63;;;22.80;62.80;;;;;;6244202;28;20048;-53
2022/10/29 06:07:20;;;;;;;0.65;0.65;;;23.10;62.90;;;;;;6255382;28;20410;-48
2022/10/29 06:10:22;;;;;;;0.90;0.73;;;22.70;62.40;;;;;;6245784;28;20039;-54
2022/10/29 06:13:23;;;;;;;1.38;0.95;;;23.00;62.70;;;;;;6229987;28;20043;-51
2022/10/29 06:16:24;;;;;;;;;;;23.20;62.70;;;;;;6242974;28;20032;-53
2022/10/29 06:19:26;;;;;;;0.90;0.68;;;22.90;62.80;;;;;;6247352;28;19978;-51
2022/10/29 06:22:28;;;;;;;1.35;0.80;;;22.70;62.40;;;;;;6244237;28;20491;-52
2022/10/29 06:25:29;;;;;;;0.57;0.57;;;22.90;62.50;;;;;;6243530;28;20255;-50
2022/10/29 06:28:31;;;;;;;0.85;0.75;;;22.80;62.40;;;;;;6247019;28;20126;-51
2022/10/29 06:31:36;;;;;;;0.77;0.60;;;23.00;62.70;;;;;;6220310;28;20051;-49
2022/10/29 06:34:37;;;;;;;;;;;23.00;62.40;;;;;;6246140;28;20132;-52
2022/10/29 06:37:39;;;;;;;0.60;0.60;;;22.70;62.50;;;;;;6249404;28;20407;-52
2022/10/29 06:40:41;;;;;;;1.27;0.90;;;22.70;62.10;;;;;;6242856;28;20040;-49
2022/10/29 06:43:42;;;;;;;0.88;0.70;;;23.00;62.30;;;;;;6243715;28;20044;-51
2022/10/29 06:46:44;;;;;;;;;;;23.00;62.40;;;;;;6248151;28;20481;-54
2022/10/29 06:49:45;;;;;;;1.27;0.70;;;22.60;62.40;;;;;;6254460;28;20475;-49
2022/10/29 06:52:53;;;;;;;;;;;22.90;62.30;;;;;;6242868;28;21083;-52
2022/10/29 06:55:55;;;;;;;1.00;0.70;;;23.20;62.50;;;;;;6247213;28;20501;-53
2022/10/29 06:58:56;;;;;;;;;;;22.60;62.20;;;;;;6252920;28;20136;-50
2022/10/29 07:01:57;;;;;;;0.90;0.63;;;22.60;62.40;;;;;;6239248;28;19932;-51
2022/10/29 07:04:59;;;;;;;;;;;22.90;62.30;;;;;;6247649;28;20605;-51
2022/10/29 07:08:01;;;;;;;1.27;0.82;;;23.20;62.80;;;;;;6252958;28;20845;-54
2022/10/29 07:11:03;;;;;;;1.00;0.80;;;22.90;62.30;;;;;;6247999;28;20218;-55
2022/10/29 07:14:07;;;;;;;0.70;0.60;;;23.10;62.50;;;;;;6249588;28;20513;-50
2022/10/29 07:17:08;;;;;;;1.30;0.70;;;23.10;62.40;;;;;;6251297;28;20065;-52
2022/10/29 07:20:10;;;;;;;1.10;0.80;;;22.80;62.30;;;;;;6248645;28;20875;-51
2022/10/29 07:23:12;;;;;;;0.85;0.68;;;23.00;62.40;;;;;;6242697;28;20046;-50
2022/10/29 07:26:14;;;;;;;1.25;0.70;;;22.80;62.30;;;;;;6245174;28;20617;-51
2022/10/29 07:29:15;;;;;;;;;;;22.80;62.30;;;;;;6253737;28;21176;-51
2022/10/29 07:32:17;;;;;;;1.20;0.82;;;23.10;62.60;;;;;;6239651;28;19925;-50
2022/10/29 07:35:18;;;;;;;;;;;23.00;62.40;;;;;;6242974;28;20665;-53
2022/10/29 07:38:20;;;;;;;0.88;0.60;;;22.50;62.40;;;;;;6249579;28;20677;-51
2022/10/29 07:41:22;;;;;;;0.80;0.60;;;22.70;62.10;;;;;;6234176;28;20331;-52
2022/10/29 07:44:23;;;;;;;0.95;0.70;;;23.10;62.50;;;;;;6244611;28;20404;-51
2022/10/29 07:47:25;;;;;;;1.10;0.88;;;23.00;62.20;;;;;;6246917;28;20055;-53
2022/10/29 07:50:28;;;;;;;0.80;0.70;;;22.70;62.20;;;;;;6246253;28;20240;-49
2022/10/29 07:53:30;;;;;;;1.15;0.88;;;22.70;62.10;;;;;;6217749;28;20752;-53
2022/10/29 07:56:31;;;;;;;0.98;0.77;;;22.80;62.20;;;;;;6234661;28;20055;-50
2022/10/29 07:59:33;;;;;;;0.95;0.68;;;23.40;62.60;;;;;;6251597;28;20187;-51
2022/10/29 08:02:35;;;;;;;0.88;0.77;;;22.80;62.30;;;;;;6250087;28;20044;-51
2022/10/29 08:05:37;;;;;;;0.98;0.90;;;22.80;62.30;;;;;;6247715;28;20973;-53
2022/10/29 08:08:39;;;;;;;1.13;0.70;;;23.00;62.30;;;;;;6226488;28;20044;-51
2022/10/29 08:11:41;;;;;;;1.00;0.80;;;23.20;62.30;;;;;;6239186;28;20329;-52
2022/10/29 08:14:43;;;;;;;1.15;0.80;;;22.70;62.30;;;;;;6244427;28;20045;-51
2022/10/29 08:17:45;;;;;;;1.23;0.98;;;23.10;62.30;;;;;;6243291;28;20075;-48
2022/10/29 08:20:46;;;;;;;0.93;0.70;;;23.10;62.30;;;;;;6244753;28;20673;-53
2022/10/29 08:23:48;;;;;;;;;;;22.60;62.20;;;;;;6241746;28;20111;-50
2022/10/29 08:26:50;;;;;;;1.10;0.70;;;23.20;62.60;;;;;;6251917;28;20544;-49
2022/10/29 08:29:51;;;;;;;1.23;1.00;;;23.10;62.30;;;;;;6243930;28;20043;-52
2022/10/29 08:32:53;;;;;;;;;;;23.30;62.50;;;;;;6253786;28;20082;-52
2022/10/29 08:35:55;;;;;;;1.38;0.85;;;22.90;62.30;;;;;;6254300;28;19928;-53
2022/10/29 08:39:00;;;;;;;0.98;0.90;;;23.20;63.20;;;;;;6249629;28;20865;-48
2022/10/29 08:42:10;;;;;;;1.83;0.70;;;23.00;62.20;;;;;;6243977;28;20086;-51
2022/10/29 08:45:22;;;;;;;1.35;0.70;;;23.00;62.20;;;;;;6249197;28;20072;-50
2022/10/29 08:48:32;;;;;;;1.10;0.70;;;22.80;62.10;;;;;;6232118;28;20047;-50
2022/10/29 08:51:37;;;;;;;0.90;0.80;;;22.70;62.10;;;;;;6245823;28;20052;-49
2022/10/29 08:54:48;;;;;;;0.70;0.70;;;23.00;62.30;;;;;;6225378;28;20703;-53
2022/10/29 08:57:53;;;;;;;0.50;0.50;;;23.60;62.70;;;;;;6251414;28;20047;-54
2022/10/29 09:00:57;;;;;;;0.82;0.80;;;22.80;62.20;;;;;;6230017;28;20041;-53
2022/10/29 09:03:59;;;;;;;1.33;0.82;;;22.90;62.20;;;;;;6253324;28;20071;-52
2022/10/29 09:07:22;;;;;;;1.00;0.80;;;23.20;62.50;;;;;;6253576;28;20082;-51
2022/10/29 09:10:31;;;;;;;1.13;0.90;;;23.20;62.40;;;;;;6248336;28;20046;-51
2022/10/29 09:13:44;;;;;;;0.68;0.68;;;23.00;62.20;;;;;;6243017;28;20052;-51
2022/10/29 09:16:51;;;;;;;1.00;0.90;;;23.30;62.40;;;;;;6246117;28;20323;-50
2022/10/29 09:20:02;;;;;;;1.00;0.90;;;23.10;62.30;;;;;;6244824;28;20049;-52
2022/10/29 09:23:13;;;;;;;1.10;0.80;;;22.90;62.10;;;;;;6244154;28;20308;-52
2022/10/29 09:26:21;;;;;;;0.75;0.68;;;22.80;62.10;;;;;;6233510;28;20040;-52
2022/10/29 09:29:45;;;;;;;1.15;0.77;;;23.20;62.30;;;;;;6246587;28;20640;-51
2022/10/29 09:32:56;;;;;;;0.90;0.85;;;23.00;62.20;;;;;;6230906;28;20271;-52
2022/10/29 09:35:59;;;;;;;1.10;0.80;;;23.30;62.40;;;;;;6245362;28;21103;-51
2022/10/29 09:39:03;;;;;;;1.10;0.70;;;23.00;62.30;;;;;;6230645;28;20408;-50
2022/10/29 09:42:11;;;;;;;1.00;0.90;;;23.50;62.50;;;;;;6230357;28;20109;-55
2022/10/29 09:45:16;;;;;;;1.23;0.80;;;22.80;62.20;;;;;;6251920;28;20846;-52
2022/10/29 09:48:24;;;;;;;1.35;0.90;;;23.10;62.20;;;;;;6257442;28;20409;-55
2022/10/29 09:51:33;;;;;;;1.08;0.80;;;23.00;62.30;;;;;;6228035;28;20130;-53
2022/10/29 09:54:35;;;;;;;1.70;0.70;;;23.50;62.50;;;;;;6248411;28;20561;-48
2022/10/29 09:57:39;;;;;;;1.20;0.90;;;23.20;62.30;;;;;;6252606;28;20813;-53
2022/10/29 10:00:41;;;;;;;0.73;0.73;;;23.20;62.30;;;;;;6253755;28;20526;-52
2022/10/29 10:03:47;;;;;;;1.00;0.85;;;23.30;62.40;;;;;;6243941;28;20087;-52
2022/10/29 10:07:04;;;;;;;1.10;0.80;;;23.10;62.10;;;;;;6225308;28;20048;-51
2022/10/29 10:10:07;;;;;;;1.30;0.90;;;23.40;62.30;;;;;;6252434;28;20478;-53
2022/10/29 10:13:14;;;;;;;1.58;1.10;;;23.20;62.10;;;;;;6232059;28;20048;-54
2022/10/29 10:16:23;;;;;;;0.80;0.80;;;23.20;62.10;;;;;;6249015;28;20044;-51
2022/10/29 10:19:27;;;;;;;1.20;0.90;;;23.50;62.20;;;;;;6247693;28;20243;-53
2022/10/29 10:22:29;;;;;;;1.38;1.00;;;23.40;62.10;;;;;;6227592;28;20048;-53
2022/10/29 10:25:34;;;;;;;1.77;1.00;;;23.30;61.90;;;;;;6243615;28;20281;-48
2022/10/29 10:28:39;;;;;;;2.08;1.02;;;23.10;61.80;;;;;;6253479;28;20312;-49
2022/10/29 10:31:42;;;;;;;1.27;0.95;;;23.50;62.00;;;;;;6241751;28;20121;-49
2022/10/29 10:34:43;;;;;;;1.20;1.00;;;23.40;61.80;;;;;;6219692;28;20420;-48
2022/10/29 10:37:45;;;;;;;2.08;1.02;;;23.30;61.90;;;;;;6249721;28;20076;-50
2022/10/29 10:40:55;;;;;;;1.10;0.85;;;23.20;61.80;;;;;;6245241;28;20047;-50
2022/10/29 10:43:59;;;;;;;1.33;0.93;;;23.10;61.60;;;;;;6247666;28;20135;-53
2022/10/29 10:47:06;;;;;;;1.52;1.00;;;23.30;61.70;;;;;;6222596;28;20154;-50
2022/10/29 10:50:17;;;;;;;3.42;1.00;;;23.40;61.70;;;;;;6248148;28;20035;-47
2022/10/29 10:53:21;;;;;;;1.73;1.00;;;23.40;61.60;;;;;;6228844;28;20446;-52
2022/10/29 10:56:23;;;;;;;0.88;0.85;;;23.00;61.30;;;;;;6225051;28;20366;-50
2022/10/29 10:59:33;;;;;;;0.90;0.80;;;23.20;61.60;;;;;;6244791;28;20194;-54
2022/10/29 11:02:44;;;;;;;1.33;0.88;;;23.50;61.50;;;;;;6235648;28;20156;-52
2022/10/29 11:05:53;;;;;;;1.33;1.07;;;23.40;76.00;;;;;;6241388;28;20397;-51
2022/10/29 11:08:59;;;;;;;0.88;0.70;;;23.30;61.40;;;;;;6234614;28;20670;-48
2022/10/29 11:12:05;;;;;;;1.50;0.90;;;23.20;61.30;;;;;;6252711;28;20378;-53
2022/10/29 11:15:15;;;;;;;1.10;1.00;;;23.10;61.20;;;;;;6228735;28;20108;-51
2022/10/29 11:18:22;;;;;;;1.10;0.90;;;23.10;61.20;;;;;;6249740;28;20487;-49
2022/10/29 11:21:29;;;;;;;1.40;1.00;;;23.30;61.30;;;;;;6252072;28;20150;-48
2022/10/29 11:24:40;;;;;;;1.90;1.10;;;23.30;61.30;;;;;;6252453;28;20628;-51
2022/10/29 11:27:51;;;;;;;1.27;1.08;;;23.40;61.40;;;;;;6253272;28;21305;-50
2022/10/29 11:30:58;;;;;;;1.53;0.73;;;23.10;61.30;;;;;;6222003;28;20047;-50
2022/10/29 11:34:09;;;;;;;1.42;0.80;;;23.10;61.30;;;;;;6231511;28;20692;-49
2022/10/29 11:37:19;;;;;;;0.77;0.73;;;23.40;61.40;;;;;;6249102;28;20573;-53
2022/10/29 11:40:23;;;;;;;1.35;0.88;;;23.50;61.40;;;;;;6248808;28;20040;-52
2022/10/29 11:43:24;;;;;;;0.98;0.82;;;23.20;61.20;;;;;;6248118;28;20532;-49
2022/10/29 11:46:37;;;;;;;1.42;0.90;;;23.40;61.40;;;;;;6244716;28;20217;-49
2022/10/29 11:49:56;;;;;;;1.23;1.10;;;23.30;61.20;;;;;;6245303;28;20041;-49
2022/10/29 11:53:08;;;;;;;0.95;0.82;;;23.70;61.40;;;;;;6228990;28;20841;-50
2022/10/29 11:56:20;;;;;;;2.17;1.23;;;23.60;61.30;;;;;;6240875;28;20075;-50
2022/10/29 11:59:36;;;;;;;1.00;0.90;;;23.60;61.40;;;;;;6232510;28;20045;-52
2022/10/29 12:02:56;;;;;;;1.60;1.27;;;23.50;61.20;;;;;;6220204;28;20040;-50
2022/10/29 12:06:11;;;;;;;1.90;1.07;;;23.70;61.30;;;;;;6236146;28;20153;-50
2022/10/29 12:09:40;;;;;;;2.05;0.98;;;23.50;61.20;;;;;;6249166;28;20133;-50
2022/10/29 12:12:49;;;;;;;1.30;0.98;;;23.40;61.10;;;;;;6238302;28;20664;-51
2022/10/29 12:16:04;;;;;;;1.10;0.75;;;23.60;61.20;;;;;;6248713;28;20139;-50
2022/10/29 12:19:21;;;;;;;1.40;1.10;;;23.70;61.20;;;;;;6247274;28;20047;-49
2022/10/29 12:22:34;;;;;;;1.48;1.13;;;23.30;61.00;;;;;;6241514;28;20587;-47
2022/10/29 12:25:47;;;;;;;1.00;0.88;;;23.70;61.20;;;;;;6242630;28;20052;-52
2022/10/29 12:28:55;;;;;;;1.33;1.00;;;23.20;60.90;;;;;;6238968;28;20137;-52
2022/10/29 12:32:05;;;;;;;1.10;0.90;;;23.70;61.20;;;;;;6242915;28;20480;-49
2022/10/29 12:35:17;;;;;;;1.05;0.80;;;23.70;61.20;;;;;;6234803;28;20032;-52
2022/10/29 12:38:29;;;;;;;1.75;1.10;;;23.80;61.20;;;;;;6228413;28;20341;-48
2022/10/29 12:41:37;;;;;;;1.35;0.93;;;23.60;61.10;;;;;;6226071;28;20243;-50
2022/10/29 12:44:44;;;;;;;1.35;1.05;;;23.70;61.20;;;;;;6228361;28;20055;-51
2022/10/29 12:47:51;;;;;;;2.30;1.50;;;23.20;60.90;;;;;;6234775;28;20365;-51
2022/10/29 12:51:04;;;;;;;2.05;1.33;;;23.80;61.30;;;;;;6223776;28;20374;-51
2022/10/29 12:54:29;;;;;;;1.27;0.95;;;23.50;61.10;;;;;;6239165;28;20677;-50
2022/10/29 12:57:33;;;;;;;1.48;1.15;;;23.70;61.20;;;;;;6231167;28;20166;-55
2022/10/29 13:00:49;;;;;;;1.23;0.95;;;23.80;61.20;;;;;;6219710;28;20145;-50
2022/10/29 13:03:59;;;;;;;1.67;1.10;;;23.90;61.30;;;;;;6219553;28;20044;-52
2022/10/29 13:07:03;;;;;;;1.55;1.20;;;23.20;60.90;;;;;;6241085;28;20319;-52
2022/10/29 13:10:34;;;;;;;1.88;1.10;;;23.70;61.20;;;;;;6224586;28;20578;-52
2022/10/29 13:13:54;;;;;;;2.03;1.13;;;23.40;61.00;;;;;;6214222;28;20131;-52
2022/10/29 13:16:59;;;;;;;1.23;1.02;;;23.70;61.20;;;;;;6223034;28;20517;-52
2022/10/29 13:20:05;;;;;;;2.70;1.40;;;23.60;61.20;;;;;;6205328;28;21160;-53
2022/10/29 13:23:31;;;;;;;2.38;1.20;;;23.70;61.20;;;;;;6239142;28;20653;-53
2022/10/29 13:26:55;;;;;;;3.80;1.25;;;23.90;61.40;;;;;;6221247;28;20223;-51
2022/10/29 13:30:16;;;;;;;2.78;1.30;;;23.50;61.20;;;;;;6216830;28;20134;-49
2022/10/29 13:33:47;;;;;;;2.22;1.25;;;23.90;61.50;;;;;;6213238;28;20055;-48
2022/10/29 13:36:49;;;;;;;1.85;1.15;;;23.70;61.40;;;;;;6215584;28;20501;-52
2022/10/29 13:40:20;;;;;;;2.15;1.38;;;24.00;61.80;;;;;;6236424;28;20833;-51
2022/10/29 13:43:23;;;;;;;1.92;1.30;;;23.90;61.60;;;;;;6199744;28;20151;-54
2022/10/29 13:46:33;;;;;;;1.30;1.10;;;23.50;61.40;;;;;;6228023;28;20040;-53
2022/10/29 13:49:41;;;;;;;1.27;1.05;;;23.70;61.50;;;;;;6225976;28;20163;-50
2022/10/29 13:52:45;;;;;;;1.45;0.98;;;23.80;61.70;;;;;;6229192;28;20063;-51
2022/10/29 13:55:48;;;;;;;1.35;1.00;;;23.70;61.60;;;;;;6215380;28;20118;-51
2022/10/29 13:58:52;;;;;;;1.13;0.80;;;23.50;61.50;;;;;;6231387;28;21804;-51
2022/10/29 14:02:01;;;;;;;1.10;0.88;;;23.80;61.70;;;;;;6228647;28;20388;-50
2022/10/29 14:05:11;;;;;;;1.13;0.70;;;24.00;61.90;;;;;;6211747;28;21151;-51
2022/10/29 14:08:19;;;;;;;1.48;0.98;;;23.90;61.90;;;;;;6213371;28;20295;-50
2022/10/29 14:11:25;;;;;;;1.45;1.00;;;23.90;61.90;;;;;;6231282;28;20044;-52
2022/10/29 14:14:33;;;;;;;0.90;0.77;;;24.20;62.10;;;;;;6200778;28;20244;-52
2022/10/29 14:17:34;;;;;;;1.40;0.95;;;23.90;62.00;;;;;;6214804;28;20579;-50
2022/10/29 14:20:35;;;;;;;1.55;1.10;;;23.80;62.00;;;;;;6238708;28;20060;-49
2022/10/29 14:23:39;;;;;;;;;;;24.10;62.10;;;;;;6236701;28;20129;-50
2022/10/29 14:26:42;;;;;;;1.45;0.80;;;24.20;62.10;;;;;;6239272;28;20293;-52
2022/10/29 14:29:45;;;;;;;1.75;1.23;;;24.00;61.80;;;;;;6233435;28;20726;-50
2022/10/29 14:32:46;;;;;;;1.00;0.80;;;24.00;61.70;;;;;;6232876;28;20386;-51
2022/10/29 14:35:48;;;;;;;1.08;0.95;;;23.50;61.30;;;;;;6225675;28;20784;-50
2022/10/29 14:38:54;;;;;;;1.20;0.80;;;23.80;61.40;;;;;;6239152;28;20343;-47
2022/10/29 14:41:56;;;;;;;1.33;1.00;;;24.00;61.50;;;;;;6215504;28;21070;-49
2022/10/29 14:45:02;;;;;;;1.05;0.80;;;24.10;61.60;;;;;;6236384;28;20096;-52
2022/10/29 14:48:10;;;;;;;2.05;0.88;;;23.80;61.30;;;;;;6233240;28;20453;-51
2022/10/29 14:51:18;;;;;;;1.00;0.70;;;24.10;61.30;;;;;;6229961;28;20464;-49
2022/10/29 14:54:23;;;;;;;1.15;0.88;;;24.10;61.10;;;;;;6231943;28;20633;-51
2022/10/29 14:57:27;;;;;;;1.25;0.70;;;23.50;60.70;;;;;;6233313;28;20298;-51
2022/10/29 15:00:34;;;;;;;0.80;0.60;;;24.10;60.80;;;;;;6224295;28;20424;-49
2022/10/29 15:03:36;;;;;;;0.73;0.63;;;24.10;60.70;;;;;;6214611;28;20036;-49
2022/10/29 15:06:37;;;;;;;0.93;0.60;;;24.00;60.50;;;;;;6222039;28;20135;-50
2022/10/29 15:09:39;;;;;;;;;;;24.10;60.40;;;;;;6228326;28;21145;-51
2022/10/29 15:12:40;;;;;;;0.80;0.50;;;23.90;60.50;;;;;;6220120;28;20465;-51
2022/10/29 15:15:52;;;;;;;0.60;0.50;;;23.60;60.00;;;;;;6235495;28;20103;-48
2022/10/29 15:18:55;;;;;;;0.82;0.43;;;24.00;59.70;;;;;;6235827;28;20402;-51
2022/10/29 15:21:57;;;;;;;0.73;0.45;;;24.00;59.60;;;;;;6218304;28;20044;-48
2022/10/29 15:25:01;;;;;;;0.55;0.40;;;23.90;59.30;;;;;;6232406;28;20404;-52
2022/10/29 15:28:03;;;;;;;0.73;0.40;;;24.30;59.20;;;;;;6233866;28;20150;-48
2022/10/29 15:31:06;;;;;;;0.43;0.30;;;24.00;58.90;;;;;;6231392;28;20040;-53
2022/10/29 15:34:13;;;;;;;0.70;0.45;;;24.10;58.70;;;;;;6235082;28;20156;-53
2022/10/29 15:37:24;;;;;;;0.45;0.30;;;23.80;58.30;;;;;;6231930;28;20087;-52
2022/10/29 15:40:25;;;;;;;0.77;0.22;;;23.70;57.90;;;;;;6217757;28;20056;-50
2022/10/29 15:43:28;;;;;;;0.90;0.40;;;24.10;58.70;;;;;;6229285;28;20106;-52
2022/10/29 15:46:42;;;;;;;0.32;0.30;;;23.90;57.80;;;;;;6193434;28;20229;-52
2022/10/29 15:49:44;;;;;;;0.20;0.20;;;24.20;57.70;;;;;;6233979;28;20077;-54
2022/10/29 15:52:51;;;;;;;0.57;0.30;;;24.10;57.50;;;;;;6234521;28;20171;-53
2022/10/29 15:55:53;;;;;;;0.40;0.25;;;24.20;57.30;;;;;;6207773;28;20518;-48
2022/10/29 15:58:58;;;;;;;0.20;0.20;;;23.90;57.10;;;;;;6231986;28;20589;-51
2022/10/29 16:02:00;;;;;;;0.45;0.30;;;24.40;57.10;;;;;;6220615;28;21269;-52
2022/10/29 16:05:02;;;;;;;0.30;0.30;;;24.00;56.80;;;;;;6233696;28;20055;-53
2022/10/29 16:08:04;;;;;;;0.30;0.30;;;24.30;56.80;;;;;;6238972;28;20048;-50
2022/10/29 16:11:07;;;;;;;1.33;0.32;;;24.00;56.50;;;;;;6230035;28;20091;-50
2022/10/29 16:14:09;;;;;;;0.38;0.25;;;24.20;56.50;;;;;;6214747;28;21032;-48
2022/10/29 16:17:15;;;;;;;0.40;0.30;;;24.20;56.40;;;;;;6230368;28;20515;-50